sensor_id;sensor_type;location;lat;lon;timestamp;pressure;altitude;pressure_sealevel;temperature
79488;BMP180;68949;53.176;18.088;2023-06-19T00:02:05;100501.40;;;
79488;BMP180;68949;53.176;18.088;2023-06-19T00:04:31;100497.00;;;
79488;BMP180;68949;53.176;18.088;2023-06-19T00:07:00;100496.80;;;
79488;BMP180;68949;53.176;18.088;2023-06-19T00:09:27;100496.60;;;
79488;BMP180;68949;53.176;18.088;2023-06-19T00:11:54;100496.60;;;
79488;BMP180;68949;53.176;18.088;2023-06-19T00:14:21;100496.40;;;
79488;BMP180;68949;53.176;18.088;2023-06-19T00:16:47;100498.60;;;
79488;BMP180;68949;53.176;18.088;2023-06-19T00:19:14;100504.20;;;
79488;BMP180;68949;53.176;18.088;2023-06-19T00:21:41;100501.40;;;
79488;BMP180;68949;53.176;18.088;2023-06-19T00:24:10;100502.20;;;
79488;BMP180;68949;53.176;18.088;2023-06-19T00:26:37;100499.00;;;
79488;BMP180;68949;53.176;18.088;2023-06-19T00:29:04;100497.00;;;
79488;BMP180;68949;53.176;18.088;2023-06-19T00:31:31;100498.60;;;
79488;BMP180;68949;53.176;18.088;2023-06-19T00:33:57;100487.80;;;
79488;BMP180;68949;53.176;18.088;2023-06-19T00:36:25;100493.80;;;
79488;BMP180;68949;53.176;18.088;2023-06-19T00:38:52;100488.00;;;
79488;BMP180;68949;53.176;18.088;2023-06-19T00:41:20;100495.40;;;
79488;BMP180;68949;53.176;18.088;2023-06-19T00:43:46;100495.80;;;
79488;BMP180;68949;53.176;18.088;2023-06-19T00:46:13;100489.60;;;
79488;BMP180;68949;53.176;18.088;2023-06-19T00:48:40;100495.00;;;
79488;BMP180;68949;53.176;18.088;2023-06-19T00:51:08;100492.40;;;
79488;BMP180;68949;53.176;18.088;2023-06-19T00:53:35;100494.80;;;
79488;BMP180;68949;53.176;18.088;2023-06-19T00:56:03;100497.20;;;
79488;BMP180;68949;53.176;18.088;2023-06-19T00:58:30;100497.20;;;
79488;BMP180;68949;53.176;18.088;2023-06-19T01:00:58;100494.60;;;
79488;BMP180;68949;53.176;18.088;2023-06-19T01:03:24;100492.00;;;
79488;BMP180;68949;53.176;18.088;2023-06-19T01:05:54;100485.00;;;
79488;BMP180;68949;53.176;18.088;2023-06-19T01:08:37;100476.80;;;
79488;BMP180;68949;53.176;18.088;2023-06-19T01:11:08;100474.00;;;
79488;BMP180;68949;53.176;18.088;2023-06-19T01:13:52;100468.40;;;
79488;BMP180;68949;53.176;18.088;2023-06-19T01:16:21;100464.40;;;
79488;BMP180;68949;53.176;18.088;2023-06-19T01:18:49;100470.40;;;
79488;BMP180;68949;53.176;18.088;2023-06-19T01:21:18;100468.80;;;
79488;BMP180;68949;53.176;18.088;2023-06-19T01:23:45;100474.00;;;
79488;BMP180;68949;53.176;18.088;2023-06-19T01:26:13;100471.40;;;
79488;BMP180;68949;53.176;18.088;2023-06-19T01:28:42;100470.40;;;
79488;BMP180;68949;53.176;18.088;2023-06-19T01:31:38;100468.60;;;
79488;BMP180;68949;53.176;18.088;2023-06-19T01:34:07;100467.00;;;
79488;BMP180;68949;53.176;18.088;2023-06-19T01:36:35;100474.40;;;
79488;BMP180;68949;53.176;18.088;2023-06-19T01:39:03;100476.80;;;
79488;BMP180;68949;53.176;18.088;2023-06-19T01:41:32;100480.00;;;
79488;BMP180;68949;53.176;18.088;2023-06-19T01:44:00;100477.80;;;
79488;BMP180;68949;53.176;18.088;2023-06-19T01:46:27;100474.20;;;
79488;BMP180;68949;53.176;18.088;2023-06-19T01:48:53;100468.00;;;
79488;BMP180;68949;53.176;18.088;2023-06-19T01:51:20;100467.60;;;
79488;BMP180;68949;53.176;18.088;2023-06-19T01:53:47;100476.00;;;
79488;BMP180;68949;53.176;18.088;2023-06-19T01:56:14;100476.40;;;
79488;BMP180;68949;53.176;18.088;2023-06-19T01:58:40;100476.00;;;
79488;BMP180;68949;53.176;18.088;2023-06-19T02:01:07;100477.80;;;
79488;BMP180;68949;53.176;18.088;2023-06-19T02:03:34;100478.60;;;
79488;BMP180;68949;53.176;18.088;2023-06-19T02:06:00;100482.60;;;
79488;BMP180;68949;53.176;18.088;2023-06-19T02:08:27;100477.80;;;
79488;BMP180;68949;53.176;18.088;2023-06-19T02:10:54;100473.20;;;
79488;BMP180;68949;53.176;18.088;2023-06-19T02:13:20;100473.00;;;
79488;BMP180;68949;53.176;18.088;2023-06-19T02:15:47;100469.60;;;
79488;BMP180;68949;53.176;18.088;2023-06-19T02:18:15;100468.00;;;
79488;BMP180;68949;53.176;18.088;2023-06-19T02:20:42;100469.00;;;
79488;BMP180;68949;53.176;18.088;2023-06-19T02:23:09;100469.00;;;
79488;BMP180;68949;53.176;18.088;2023-06-19T02:25:35;100468.60;;;
79488;BMP180;68949;53.176;18.088;2023-06-19T02:28:02;100463.00;;;
79488;BMP180;68949;53.176;18.088;2023-06-19T02:30:30;100463.20;;;
79488;BMP180;68949;53.176;18.088;2023-06-19T02:32:56;100466.40;;;
79488;BMP180;68949;53.176;18.088;2023-06-19T02:35:23;100467.20;;;
79488;BMP180;68949;53.176;18.088;2023-06-19T02:37:50;100466.00;;;
79488;BMP180;68949;53.176;18.088;2023-06-19T02:40:17;100463.40;;;
79488;BMP180;68949;53.176;18.088;2023-06-19T02:42:43;100470.00;;;
79488;BMP180;68949;53.176;18.088;2023-06-19T02:45:10;100464.80;;;
79488;BMP180;68949;53.176;18.088;2023-06-19T02:47:37;100463.20;;;
79488;BMP180;68949;53.176;18.088;2023-06-19T02:50:06;100460.80;;;
79488;BMP180;68949;53.176;18.088;2023-06-19T02:52:32;100457.00;;;
79488;BMP180;68949;53.176;18.088;2023-06-19T02:54:59;100459.00;;;
79488;BMP180;68949;53.176;18.088;2023-06-19T02:57:26;100453.00;;;
79488;BMP180;68949;53.176;18.088;2023-06-19T02:59:53;100450.20;;;
79488;BMP180;68949;53.176;18.088;2023-06-19T03:02:19;100453.20;;;
79488;BMP180;68949;53.176;18.088;2023-06-19T03:04:46;100448.40;;;
79488;BMP180;68949;53.176;18.088;2023-06-19T03:07:13;100447.40;;;
79488;BMP180;68949;53.176;18.088;2023-06-19T03:09:40;100447.00;;;
79488;BMP180;68949;53.176;18.088;2023-06-19T03:12:09;100443.40;;;
79488;BMP180;68949;53.176;18.088;2023-06-19T03:14:36;100439.80;;;
79488;BMP180;68949;53.176;18.088;2023-06-19T03:17:03;100439.00;;;
79488;BMP180;68949;53.176;18.088;2023-06-19T03:19:30;100440.20;;;
79488;BMP180;68949;53.176;18.088;2023-06-19T03:21:58;100435.60;;;
79488;BMP180;68949;53.176;18.088;2023-06-19T03:24:24;100439.00;;;
79488;BMP180;68949;53.176;18.088;2023-06-19T03:26:54;100444.60;;;
79488;BMP180;68949;53.176;18.088;2023-06-19T03:29:21;100450.20;;;
79488;BMP180;68949;53.176;18.088;2023-06-19T03:32:03;100462.40;;;
79488;BMP180;68949;53.176;18.088;2023-06-19T03:34:33;100467.00;;;
79488;BMP180;68949;53.176;18.088;2023-06-19T03:37:03;100466.80;;;
79488;BMP180;68949;53.176;18.088;2023-06-19T03:39:30;100458.20;;;
79488;BMP180;68949;53.176;18.088;2023-06-19T03:42:02;100456.00;;;
79488;BMP180;68949;53.176;18.088;2023-06-19T03:44:29;100456.80;;;
79488;BMP180;68949;53.176;18.088;2023-06-19T03:46:55;100451.60;;;
79488;BMP180;68949;53.176;18.088;2023-06-19T03:49:22;100453.80;;;
79488;BMP180;68949;53.176;18.088;2023-06-19T03:51:51;100451.60;;;
79488;BMP180;68949;53.176;18.088;2023-06-19T03:54:18;100443.80;;;
79488;BMP180;68949;53.176;18.088;2023-06-19T03:56:45;100440.60;;;
79488;BMP180;68949;53.176;18.088;2023-06-19T03:59:12;100437.40;;;
79488;BMP180;68949;53.176;18.088;2023-06-19T04:01:38;100442.20;;;
79488;BMP180;68949;53.176;18.088;2023-06-19T04:04:05;100436.60;;;
79488;BMP180;68949;53.176;18.088;2023-06-19T04:06:32;100434.40;;;
79488;BMP180;68949;53.176;18.088;2023-06-19T04:08:58;100434.60;;;
79488;BMP180;68949;53.176;18.088;2023-06-19T04:11:25;100431.80;;;
79488;BMP180;68949;53.176;18.088;2023-06-19T04:13:52;100433.20;;;
79488;BMP180;68949;53.176;18.088;2023-06-19T04:16:19;100434.20;;;
79488;BMP180;68949;53.176;18.088;2023-06-19T04:18:45;100442.80;;;
79488;BMP180;68949;53.176;18.088;2023-06-19T04:21:14;100445.00;;;
79488;BMP180;68949;53.176;18.088;2023-06-19T04:23:41;100436.00;;;
79488;BMP180;68949;53.176;18.088;2023-06-19T04:26:08;100434.20;;;
79488;BMP180;68949;53.176;18.088;2023-06-19T04:28:35;100436.20;;;
79488;BMP180;68949;53.176;18.088;2023-06-19T04:31:01;100431.80;;;
79488;BMP180;68949;53.176;18.088;2023-06-19T04:33:29;100435.40;;;
79488;BMP180;68949;53.176;18.088;2023-06-19T04:35:56;100434.60;;;
79488;BMP180;68949;53.176;18.088;2023-06-19T04:38:23;100430.80;;;
79488;BMP180;68949;53.176;18.088;2023-06-19T04:40:51;100432.20;;;
79488;BMP180;68949;53.176;18.088;2023-06-19T04:43:18;100428.40;;;
79488;BMP180;68949;53.176;18.088;2023-06-19T04:45:45;100429.00;;;
79488;BMP180;68949;53.176;18.088;2023-06-19T04:48:12;100426.20;;;
79488;BMP180;68949;53.176;18.088;2023-06-19T04:50:38;100428.00;;;
79488;BMP180;68949;53.176;18.088;2023-06-19T04:53:05;100431.40;;;
79488;BMP180;68949;53.176;18.088;2023-06-19T04:55:32;100437.20;;;
79488;BMP180;68949;53.176;18.088;2023-06-19T04:57:59;100437.60;;;
79488;BMP180;68949;53.176;18.088;2023-06-19T05:00:26;100444.80;;;
79488;BMP180;68949;53.176;18.088;2023-06-19T05:02:53;100452.20;;;
79488;BMP180;68949;53.176;18.088;2023-06-19T05:05:20;100451.20;;;
79488;BMP180;68949;53.176;18.088;2023-06-19T05:07:47;100448.60;;;
79488;BMP180;68949;53.176;18.088;2023-06-19T05:10:13;100457.80;;;
79488;BMP180;68949;53.176;18.088;2023-06-19T05:12:40;100466.80;;;
79488;BMP180;68949;53.176;18.088;2023-06-19T05:15:08;100464.20;;;
79488;BMP180;68949;53.176;18.088;2023-06-19T05:17:35;100473.60;;;
79488;BMP180;68949;53.176;18.088;2023-06-19T05:20:01;100470.60;;;
79488;BMP180;68949;53.176;18.088;2023-06-19T05:22:28;100472.80;;;
79488;BMP180;68949;53.176;18.088;2023-06-19T05:24:55;100471.40;;;
79488;BMP180;68949;53.176;18.088;2023-06-19T05:27:22;100466.00;;;
79488;BMP180;68949;53.176;18.088;2023-06-19T05:29:48;100467.20;;;
79488;BMP180;68949;53.176;18.088;2023-06-19T05:32:15;100475.00;;;
79488;BMP180;68949;53.176;18.088;2023-06-19T05:34:42;100477.00;;;
79488;BMP180;68949;53.176;18.088;2023-06-19T05:37:08;100475.60;;;
79488;BMP180;68949;53.176;18.088;2023-06-19T05:39:35;100471.40;;;
79488;BMP180;68949;53.176;18.088;2023-06-19T05:42:02;100472.40;;;
79488;BMP180;68949;53.176;18.088;2023-06-19T05:44:29;100472.80;;;
79488;BMP180;68949;53.176;18.088;2023-06-19T05:46:55;100470.20;;;
79488;BMP180;68949;53.176;18.088;2023-06-19T05:49:22;100477.00;;;
79488;BMP180;68949;53.176;18.088;2023-06-19T05:51:49;100477.60;;;
79488;BMP180;68949;53.176;18.088;2023-06-19T05:54:15;100481.80;;;
79488;BMP180;68949;53.176;18.088;2023-06-19T05:56:44;100479.00;;;
79488;BMP180;68949;53.176;18.088;2023-06-19T05:59:10;100482.80;;;
79488;BMP180;68949;53.176;18.088;2023-06-19T06:01:37;100471.80;;;
79488;BMP180;68949;53.176;18.088;2023-06-19T06:04:04;100476.80;;;
79488;BMP180;68949;53.176;18.088;2023-06-19T06:06:31;100468.00;;;
79488;BMP180;68949;53.176;18.088;2023-06-19T06:08:58;100468.40;;;
79488;BMP180;68949;53.176;18.088;2023-06-19T06:11:24;100468.80;;;
79488;BMP180;68949;53.176;18.088;2023-06-19T06:13:51;100475.20;;;
79488;BMP180;68949;53.176;18.088;2023-06-19T06:16:18;100467.80;;;
79488;BMP180;68949;53.176;18.088;2023-06-19T06:18:45;100464.80;;;
79488;BMP180;68949;53.176;18.088;2023-06-19T06:21:12;100461.00;;;
79488;BMP180;68949;53.176;18.088;2023-06-19T06:23:41;100463.20;;;
79488;BMP180;68949;53.176;18.088;2023-06-19T06:26:11;100459.80;;;
79488;BMP180;68949;53.176;18.088;2023-06-19T06:28:37;100465.80;;;
79488;BMP180;68949;53.176;18.088;2023-06-19T06:31:06;100466.60;;;
79488;BMP180;68949;53.176;18.088;2023-06-19T06:33:34;100474.40;;;
79488;BMP180;68949;53.176;18.088;2023-06-19T06:36:01;100488.80;;;
79488;BMP180;68949;53.176;18.088;2023-06-19T06:38:27;100480.20;;;
79488;BMP180;68949;53.176;18.088;2023-06-19T06:40:54;100484.20;;;
79488;BMP180;68949;53.176;18.088;2023-06-19T06:43:21;100481.20;;;
79488;BMP180;68949;53.176;18.088;2023-06-19T06:45:48;100490.20;;;
79488;BMP180;68949;53.176;18.088;2023-06-19T06:48:15;100471.80;;;
79488;BMP180;68949;53.176;18.088;2023-06-19T06:50:42;100478.00;;;
79488;BMP180;68949;53.176;18.088;2023-06-19T06:53:09;100475.40;;;
79488;BMP180;68949;53.176;18.088;2023-06-19T06:55:36;100463.20;;;
79488;BMP180;68949;53.176;18.088;2023-06-19T06:58:03;100473.60;;;
79488;BMP180;68949;53.176;18.088;2023-06-19T07:00:29;100475.40;;;
79488;BMP180;68949;53.176;18.088;2023-06-19T07:02:56;100472.40;;;
79488;BMP180;68949;53.176;18.088;2023-06-19T07:05:23;100482.80;;;
79488;BMP180;68949;53.176;18.088;2023-06-19T07:07:50;100493.20;;;
79488;BMP180;68949;53.176;18.088;2023-06-19T07:10:16;100483.80;;;
79488;BMP180;68949;53.176;18.088;2023-06-19T07:12:47;100488.00;;;
79488;BMP180;68949;53.176;18.088;2023-06-19T07:15:15;100484.40;;;
79488;BMP180;68949;53.176;18.088;2023-06-19T07:17:44;100477.60;;;
79488;BMP180;68949;53.176;18.088;2023-06-19T07:20:11;100487.60;;;
79488;BMP180;68949;53.176;18.088;2023-06-19T07:22:38;100491.60;;;
79488;BMP180;68949;53.176;18.088;2023-06-19T07:25:06;100492.40;;;
79488;BMP180;68949;53.176;18.088;2023-06-19T07:27:33;100496.20;;;
79488;BMP180;68949;53.176;18.088;2023-06-19T07:30:00;100489.20;;;
79488;BMP180;68949;53.176;18.088;2023-06-19T07:32:26;100507.20;;;
79488;BMP180;68949;53.176;18.088;2023-06-19T07:34:54;100493.00;;;
79488;BMP180;68949;53.176;18.088;2023-06-19T07:37:20;100479.80;;;
79488;BMP180;68949;53.176;18.088;2023-06-19T07:39:49;100479.20;;;
79488;BMP180;68949;53.176;18.088;2023-06-19T07:42:18;100473.80;;;
79488;BMP180;68949;53.176;18.088;2023-06-19T07:44:46;100486.00;;;
79488;BMP180;68949;53.176;18.088;2023-06-19T07:47:16;100484.60;;;
79488;BMP180;68949;53.176;18.088;2023-06-19T07:49:44;100499.00;;;
79488;BMP180;68949;53.176;18.088;2023-06-19T07:52:12;100495.20;;;
79488;BMP180;68949;53.176;18.088;2023-06-19T07:54:57;100502.40;;;
79488;BMP180;68949;53.176;18.088;2023-06-19T07:57:25;100506.20;;;
79488;BMP180;68949;53.176;18.088;2023-06-19T07:59:54;100502.20;;;
79488;BMP180;68949;53.176;18.088;2023-06-19T08:02:21;100482.60;;;
79488;BMP180;68949;53.176;18.088;2023-06-19T08:04:48;100485.80;;;
79488;BMP180;68949;53.176;18.088;2023-06-19T08:07:16;100497.80;;;
79488;BMP180;68949;53.176;18.088;2023-06-19T08:09:43;100492.60;;;
79488;BMP180;68949;53.176;18.088;2023-06-19T08:12:09;100484.20;;;
79488;BMP180;68949;53.176;18.088;2023-06-19T08:14:36;100488.80;;;
79488;BMP180;68949;53.176;18.088;2023-06-19T08:17:05;100493.00;;;
79488;BMP180;68949;53.176;18.088;2023-06-19T08:19:32;100468.20;;;
79488;BMP180;68949;53.176;18.088;2023-06-19T08:21:58;100487.80;;;
79488;BMP180;68949;53.176;18.088;2023-06-19T08:24:25;100473.80;;;
79488;BMP180;68949;53.176;18.088;2023-06-19T08:26:52;100474.40;;;
79488;BMP180;68949;53.176;18.088;2023-06-19T08:29:19;100491.40;;;
79488;BMP180;68949;53.176;18.088;2023-06-19T08:31:45;100473.80;;;
79488;BMP180;68949;53.176;18.088;2023-06-19T08:34:12;100470.60;;;
79488;BMP180;68949;53.176;18.088;2023-06-19T08:36:39;100460.00;;;
79488;BMP180;68949;53.176;18.088;2023-06-19T08:39:05;100471.00;;;
79488;BMP180;68949;53.176;18.088;2023-06-19T08:41:37;100481.80;;;
79488;BMP180;68949;53.176;18.088;2023-06-19T08:44:08;100471.80;;;
79488;BMP180;68949;53.176;18.088;2023-06-19T08:46:36;100466.80;;;
79488;BMP180;68949;53.176;18.088;2023-06-19T08:49:08;100472.00;;;
79488;BMP180;68949;53.176;18.088;2023-06-19T08:51:37;100481.60;;;
79488;BMP180;68949;53.176;18.088;2023-06-19T08:54:07;100469.40;;;
79488;BMP180;68949;53.176;18.088;2023-06-19T08:56:36;100462.80;;;
79488;BMP180;68949;53.176;18.088;2023-06-19T09:01:37;100459.60;;;
79488;BMP180;68949;53.176;18.088;2023-06-19T09:04:12;100457.20;;;
79488;BMP180;68949;53.176;18.088;2023-06-19T09:09:21;100452.00;;;
79488;BMP180;68949;53.176;18.088;2023-06-19T09:12:04;100448.40;;;
79488;BMP180;68949;53.176;18.088;2023-06-19T09:14:39;100463.40;;;
79488;BMP180;68949;53.176;18.088;2023-06-19T09:17:32;100433.80;;;
79488;BMP180;68949;53.176;18.088;2023-06-19T09:20:10;100438.80;;;
79488;BMP180;68949;53.176;18.088;2023-06-19T09:22:38;100438.60;;;
79488;BMP180;68949;53.176;18.088;2023-06-19T09:25:05;100436.80;;;
79488;BMP180;68949;53.176;18.088;2023-06-19T09:27:36;100425.40;;;
79488;BMP180;68949;53.176;18.088;2023-06-19T09:30:05;100424.60;;;
79488;BMP180;68949;53.176;18.088;2023-06-19T09:32:33;100433.00;;;
79488;BMP180;68949;53.176;18.088;2023-06-19T09:35:00;100413.40;;;
79488;BMP180;68949;53.176;18.088;2023-06-19T09:37:30;100437.20;;;
79488;BMP180;68949;53.176;18.088;2023-06-19T09:40:03;100435.00;;;
79488;BMP180;68949;53.176;18.088;2023-06-19T09:42:42;100441.60;;;
79488;BMP180;68949;53.176;18.088;2023-06-19T09:45:19;100427.00;;;
79488;BMP180;68949;53.176;18.088;2023-06-19T09:47:52;100429.40;;;
79488;BMP180;68949;53.176;18.088;2023-06-19T09:50:23;100425.80;;;
79488;BMP180;68949;53.176;18.088;2023-06-19T09:52:55;100430.40;;;
79488;BMP180;68949;53.176;18.088;2023-06-19T09:55:24;100424.80;;;
79488;BMP180;68949;53.176;18.088;2023-06-19T09:57:51;100429.60;;;
79488;BMP180;68949;53.176;18.088;2023-06-19T10:00:20;100439.20;;;
79488;BMP180;68949;53.176;18.088;2023-06-19T10:02:52;100435.00;;;
79488;BMP180;68949;53.176;18.088;2023-06-19T10:05:30;100425.00;;;
79488;BMP180;68949;53.176;18.088;2023-06-19T10:07:57;100443.20;;;
79488;BMP180;68949;53.176;18.088;2023-06-19T10:10:28;100435.80;;;
79488;BMP180;68949;53.176;18.088;2023-06-19T10:13:10;100448.20;;;
79488;BMP180;68949;53.176;18.088;2023-06-19T10:15:41;100424.60;;;
79488;BMP180;68949;53.176;18.088;2023-06-19T10:18:16;100423.60;;;
79488;BMP180;68949;53.176;18.088;2023-06-19T10:20:45;100435.20;;;
79488;BMP180;68949;53.176;18.088;2023-06-19T10:23:21;100426.00;;;
79488;BMP180;68949;53.176;18.088;2023-06-19T10:25:58;100407.20;;;
79488;BMP180;68949;53.176;18.088;2023-06-19T10:28:32;100409.40;;;
79488;BMP180;68949;53.176;18.088;2023-06-19T10:31:06;100427.00;;;
79488;BMP180;68949;53.176;18.088;2023-06-19T10:33:36;100396.60;;;
79488;BMP180;68949;53.176;18.088;2023-06-19T10:36:18;100422.20;;;
79488;BMP180;68949;53.176;18.088;2023-06-19T10:38:46;100405.80;;;
79488;BMP180;68949;53.176;18.088;2023-06-19T10:41:17;100410.40;;;
79488;BMP180;68949;53.176;18.088;2023-06-19T10:44:06;100420.40;;;
79488;BMP180;68949;53.176;18.088;2023-06-19T10:46:36;100429.60;;;
79488;BMP180;68949;53.176;18.088;2023-06-19T10:49:05;100412.60;;;
79488;BMP180;68949;53.176;18.088;2023-06-19T10:51:41;100424.60;;;
79488;BMP180;68949;53.176;18.088;2023-06-19T10:54:10;100433.80;;;
79488;BMP180;68949;53.176;18.088;2023-06-19T10:56:37;100435.00;;;
79488;BMP180;68949;53.176;18.088;2023-06-19T10:59:07;100442.00;;;
79488;BMP180;68949;53.176;18.088;2023-06-19T11:01:45;100433.60;;;
79488;BMP180;68949;53.176;18.088;2023-06-19T11:04:14;100423.80;;;
79488;BMP180;68949;53.176;18.088;2023-06-19T11:06:44;100423.60;;;
79488;BMP180;68949;53.176;18.088;2023-06-19T11:09:13;100429.60;;;
79488;BMP180;68949;53.176;18.088;2023-06-19T11:11:46;100438.60;;;
79488;BMP180;68949;53.176;18.088;2023-06-19T11:14:15;100429.20;;;
79488;BMP180;68949;53.176;18.088;2023-06-19T11:16:46;100426.80;;;
79488;BMP180;68949;53.176;18.088;2023-06-19T11:19:19;100447.20;;;
79488;BMP180;68949;53.176;18.088;2023-06-19T11:21:50;100429.20;;;
79488;BMP180;68949;53.176;18.088;2023-06-19T11:24:18;100434.00;;;
79488;BMP180;68949;53.176;18.088;2023-06-19T11:26:47;100432.60;;;
79488;BMP180;68949;53.176;18.088;2023-06-19T11:29:31;100431.00;;;
79488;BMP180;68949;53.176;18.088;2023-06-19T11:32:12;100425.40;;;
79488;BMP180;68949;53.176;18.088;2023-06-19T11:34:40;100417.60;;;
79488;BMP180;68949;53.176;18.088;2023-06-19T11:37:15;100411.00;;;
79488;BMP180;68949;53.176;18.088;2023-06-19T11:39:45;100412.00;;;
79488;BMP180;68949;53.176;18.088;2023-06-19T11:42:12;100398.40;;;
79488;BMP180;68949;53.176;18.088;2023-06-19T11:45:03;100407.00;;;
79488;BMP180;68949;53.176;18.088;2023-06-19T11:47:34;100385.20;;;
79488;BMP180;68949;53.176;18.088;2023-06-19T11:50:06;100398.60;;;
79488;BMP180;68949;53.176;18.088;2023-06-19T11:52:34;100396.00;;;
79488;BMP180;68949;53.176;18.088;2023-06-19T11:55:02;100398.60;;;
79488;BMP180;68949;53.176;18.088;2023-06-19T11:57:29;100407.80;;;
79488;BMP180;68949;53.176;18.088;2023-06-19T11:59:56;100394.80;;;
79488;BMP180;68949;53.176;18.088;2023-06-19T12:02:22;100386.80;;;
79488;BMP180;68949;53.176;18.088;2023-06-19T12:04:49;100381.00;;;
79488;BMP180;68949;53.176;18.088;2023-06-19T12:07:16;100387.80;;;
79488;BMP180;68949;53.176;18.088;2023-06-19T12:09:43;100385.40;;;
79488;BMP180;68949;53.176;18.088;2023-06-19T12:12:10;100378.80;;;
79488;BMP180;68949;53.176;18.088;2023-06-19T12:14:36;100380.40;;;
79488;BMP180;68949;53.176;18.088;2023-06-19T12:17:03;100385.40;;;
79488;BMP180;68949;53.176;18.088;2023-06-19T12:19:30;100382.80;;;
79488;BMP180;68949;53.176;18.088;2023-06-19T12:21:57;100392.40;;;
79488;BMP180;68949;53.176;18.088;2023-06-19T12:24:25;100392.40;;;
79488;BMP180;68949;53.176;18.088;2023-06-19T12:26:52;100401.20;;;
79488;BMP180;68949;53.176;18.088;2023-06-19T12:29:19;100386.40;;;
79488;BMP180;68949;53.176;18.088;2023-06-19T12:31:47;100384.40;;;
79488;BMP180;68949;53.176;18.088;2023-06-19T12:34:14;100377.00;;;
79488;BMP180;68949;53.176;18.088;2023-06-19T12:36:41;100389.20;;;
79488;BMP180;68949;53.176;18.088;2023-06-19T12:39:08;100398.60;;;
79488;BMP180;68949;53.176;18.088;2023-06-19T12:41:42;100390.20;;;
79488;BMP180;68949;53.176;18.088;2023-06-19T12:44:10;100378.40;;;
79488;BMP180;68949;53.176;18.088;2023-06-19T12:46:37;100385.00;;;
79488;BMP180;68949;53.176;18.088;2023-06-19T12:49:04;100367.80;;;
79488;BMP180;68949;53.176;18.088;2023-06-19T12:51:30;100361.60;;;
79488;BMP180;68949;53.176;18.088;2023-06-19T12:53:57;100357.20;;;
79488;BMP180;68949;53.176;18.088;2023-06-19T12:56:24;100357.60;;;
79488;BMP180;68949;53.176;18.088;2023-06-19T12:58:50;100370.60;;;
79488;BMP180;68949;53.176;18.088;2023-06-19T13:01:17;100369.60;;;
79488;BMP180;68949;53.176;18.088;2023-06-19T13:03:44;100372.40;;;
79488;BMP180;68949;53.176;18.088;2023-06-19T13:06:10;100361.80;;;
79488;BMP180;68949;53.176;18.088;2023-06-19T13:08:37;100372.80;;;
79488;BMP180;68949;53.176;18.088;2023-06-19T13:11:04;100367.00;;;
79488;BMP180;68949;53.176;18.088;2023-06-19T13:13:30;100345.80;;;
79488;BMP180;68949;53.176;18.088;2023-06-19T13:15:57;100348.20;;;
79488;BMP180;68949;53.176;18.088;2023-06-19T13:18:24;100348.80;;;
79488;BMP180;68949;53.176;18.088;2023-06-19T13:20:50;100373.20;;;
79488;BMP180;68949;53.176;18.088;2023-06-19T13:23:17;100366.00;;;
79488;BMP180;68949;53.176;18.088;2023-06-19T13:25:44;100351.20;;;
79488;BMP180;68949;53.176;18.088;2023-06-19T13:28:10;100331.00;;;
79488;BMP180;68949;53.176;18.088;2023-06-19T13:30:37;100343.40;;;
79488;BMP180;68949;53.176;18.088;2023-06-19T13:33:04;100350.20;;;
79488;BMP180;68949;53.176;18.088;2023-06-19T13:35:30;100358.40;;;
79488;BMP180;68949;53.176;18.088;2023-06-19T13:37:57;100369.40;;;
79488;BMP180;68949;53.176;18.088;2023-06-19T13:40:24;100380.00;;;
79488;BMP180;68949;53.176;18.088;2023-06-19T13:42:50;100361.40;;;
79488;BMP180;68949;53.176;18.088;2023-06-19T13:45:17;100370.40;;;
79488;BMP180;68949;53.176;18.088;2023-06-19T13:47:44;100368.20;;;
79488;BMP180;68949;53.176;18.088;2023-06-19T13:50:11;100363.20;;;
79488;BMP180;68949;53.176;18.088;2023-06-19T13:52:45;100358.20;;;
79488;BMP180;68949;53.176;18.088;2023-06-19T13:55:13;100355.80;;;
79488;BMP180;68949;53.176;18.088;2023-06-19T13:57:41;100358.20;;;
79488;BMP180;68949;53.176;18.088;2023-06-19T14:00:10;100348.80;;;
79488;BMP180;68949;53.176;18.088;2023-06-19T14:02:40;100340.00;;;
79488;BMP180;68949;53.176;18.088;2023-06-19T14:05:09;100349.20;;;
79488;BMP180;68949;53.176;18.088;2023-06-19T14:07:36;100348.40;;;
79488;BMP180;68949;53.176;18.088;2023-06-19T14:10:04;100343.00;;;
79488;BMP180;68949;53.176;18.088;2023-06-19T14:12:31;100349.00;;;
79488;BMP180;68949;53.176;18.088;2023-06-19T14:14:58;100338.80;;;
79488;BMP180;68949;53.176;18.088;2023-06-19T14:17:25;100343.40;;;
79488;BMP180;68949;53.176;18.088;2023-06-19T14:19:53;100329.80;;;
79488;BMP180;68949;53.176;18.088;2023-06-19T14:22:21;100340.40;;;
79488;BMP180;68949;53.176;18.088;2023-06-19T14:24:48;100321.20;;;
79488;BMP180;68949;53.176;18.088;2023-06-19T14:27:15;100335.80;;;
79488;BMP180;68949;53.176;18.088;2023-06-19T14:29:42;100318.80;;;
79488;BMP180;68949;53.176;18.088;2023-06-19T14:32:09;100317.60;;;
79488;BMP180;68949;53.176;18.088;2023-06-19T14:34:35;100316.60;;;
79488;BMP180;68949;53.176;18.088;2023-06-19T14:37:02;100321.20;;;
79488;BMP180;68949;53.176;18.088;2023-06-19T14:39:29;100323.80;;;
79488;BMP180;68949;53.176;18.088;2023-06-19T14:41:56;100317.20;;;
79488;BMP180;68949;53.176;18.088;2023-06-19T14:44:22;100319.40;;;
79488;BMP180;68949;53.176;18.088;2023-06-19T14:46:49;100333.40;;;
79488;BMP180;68949;53.176;18.088;2023-06-19T14:49:16;100334.60;;;
79488;BMP180;68949;53.176;18.088;2023-06-19T14:51:43;100310.40;;;
79488;BMP180;68949;53.176;18.088;2023-06-19T14:54:09;100323.00;;;
79488;BMP180;68949;53.176;18.088;2023-06-19T14:56:36;100300.40;;;
79488;BMP180;68949;53.176;18.088;2023-06-19T14:59:03;100322.40;;;
79488;BMP180;68949;53.176;18.088;2023-06-19T15:01:30;100315.00;;;